createdAt,value
2022-09-13T00:01:16.383Z,99.90
2022-09-13T00:03:43.694Z,99.90
2022-09-13T00:06:18.376Z,99.90
2022-09-13T00:08:46.617Z,99.90
2022-09-13T00:11:18.960Z,99.90
2022-09-13T00:13:47.573Z,99.90
2022-09-13T00:16:18.501Z,99.90
2022-09-13T00:18:46.273Z,99.90
2022-09-13T00:21:17.381Z,99.90
2022-09-13T00:23:50.866Z,99.90
2022-09-13T00:26:28.013Z,99.90
2022-09-13T00:28:58.503Z,99.90
2022-09-13T00:31:28.350Z,99.90
2022-09-13T00:33:58.417Z,99.90
2022-09-13T00:36:25.663Z,99.90
2022-09-13T00:38:53.002Z,99.90
2022-09-13T00:41:21.886Z,99.90
2022-09-13T00:43:57.498Z,99.90
2022-09-13T00:46:42.520Z,99.90
2022-09-13T00:49:27.926Z,99.90
2022-09-13T00:52:07.328Z,99.90
2022-09-13T00:54:42.852Z,99.90
2022-09-13T00:57:13.025Z,99.90
2022-09-13T01:00:02.955Z,99.90
2022-09-13T01:02:30.957Z,99.90
2022-09-13T01:04:58.517Z,99.90
2022-09-13T01:07:25.795Z,99.90
2022-09-13T01:09:54.017Z,99.90
2022-09-13T01:12:49.249Z,99.90
2022-09-13T01:15:16.400Z,99.90
2022-09-13T01:17:44.351Z,99.90
2022-09-13T01:20:13.016Z,99.90
2022-09-13T01:22:48.808Z,99.90
2022-09-13T01:25:34.186Z,99.90
2022-09-13T01:28:24.495Z,99.90
2022-09-13T01:31:10.123Z,99.90
2022-09-13T01:33:54.905Z,99.90
2022-09-13T01:36:56.832Z,99.90
2022-09-13T01:39:52.378Z,99.90
2022-09-13T01:42:59.475Z,99.90
2022-09-13T01:46:06.208Z,99.90
2022-09-13T01:49:19.986Z,99.90
2022-09-13T01:52:16.542Z,99.90
2022-09-13T01:55:02.209Z,99.90
2022-09-13T01:58:05.992Z,99.90
2022-09-13T02:00:59.966Z,99.90
2022-09-13T02:03:37.795Z,99.90
2022-09-13T02:06:17.310Z,99.90
2022-09-13T02:08:55.216Z,99.90
2022-09-13T02:11:24.066Z,99.90
2022-09-13T02:14:21.375Z,99.90
2022-09-13T02:17:01.489Z,99.90
2022-09-13T02:20:10.170Z,99.90
2022-09-13T02:22:46.149Z,99.90
2022-09-13T02:25:19.528Z,99.90
2022-09-13T02:27:53.315Z,99.90
2022-09-13T02:30:20.851Z,99.90
2022-09-13T02:33:08.309Z,99.90
2022-09-13T02:35:54.734Z,99.90
2022-09-13T02:38:43.349Z,99.90
2022-09-13T02:44:06.468Z,99.90
2022-09-13T02:47:31.894Z,99.90
2022-09-13T02:50:16.033Z,99.90
2022-09-13T02:53:04.052Z,99.90
2022-09-13T02:55:54.987Z,99.90
2022-09-13T02:58:29.168Z,99.90
2022-09-13T03:00:56.628Z,99.90
2022-09-13T03:03:25.113Z,99.90
2022-09-13T03:05:53.773Z,99.90
2022-09-13T03:08:24.457Z,99.90
2022-09-13T03:11:05.982Z,99.90
2022-09-13T03:14:20.469Z,99.90
2022-09-13T03:17:15.648Z,99.90
2022-09-13T03:20:24.570Z,99.90
2022-09-13T03:23:35.990Z,99.90
2022-09-13T03:26:46.462Z,99.90
2022-09-13T03:29:58.949Z,99.90
2022-09-13T03:33:13.802Z,99.90
2022-09-13T03:35:50.863Z,99.90
2022-09-13T03:39:00.618Z,99.90
2022-09-13T03:41:39.507Z,99.90
2022-09-13T03:44:16.912Z,99.90
2022-09-13T03:49:20.205Z,99.90
2022-09-13T03:51:51.296Z,99.90
2022-09-13T03:54:32.363Z,99.90
2022-09-13T03:57:18.459Z,99.90
2022-09-13T03:59:52.688Z,99.90
2022-09-13T04:02:22.050Z,99.90
2022-09-13T04:04:49.623Z,99.90
2022-09-13T04:07:23.113Z,99.90
2022-09-13T04:09:50.463Z,99.90
2022-09-13T04:12:18.999Z,99.90
2022-09-13T04:14:46.222Z,99.90
2022-09-13T04:17:14.730Z,99.90
2022-09-13T04:19:42.983Z,99.90
2022-09-13T04:22:10.168Z,99.90
2022-09-13T04:24:37.282Z,99.90
2022-09-13T04:27:04.694Z,99.90
2022-09-13T04:29:32.022Z,99.90
2022-09-13T04:31:59.904Z,99.90
2022-09-13T04:34:27.224Z,99.90
2022-09-13T04:36:54.596Z,99.90
2022-09-13T04:39:22.502Z,99.90
2022-09-13T04:41:51.385Z,99.90
2022-09-13T04:44:18.874Z,99.90
2022-09-13T04:46:50.212Z,99.90
2022-09-13T04:49:18.886Z,99.90
2022-09-13T04:51:49.056Z,99.90
2022-09-13T04:54:16.586Z,99.90
2022-09-13T04:56:45.522Z,99.90
2022-09-13T04:59:13.315Z,99.90
2022-09-13T05:01:41.071Z,99.90
2022-09-13T05:04:09.796Z,99.90
2022-09-13T05:06:37.663Z,99.90
2022-09-13T05:09:05.717Z,99.90
2022-09-13T05:11:33.335Z,99.90
2022-09-13T05:14:01.396Z,99.90
2022-09-13T05:16:32.228Z,99.90
2022-09-13T05:19:00.972Z,99.90
2022-09-13T05:21:29.334Z,99.90
2022-09-13T05:23:58.036Z,99.90
2022-09-13T05:26:28.131Z,99.90
2022-09-13T05:28:55.319Z,99.90
2022-09-13T05:31:30.671Z,99.90
2022-09-13T05:34:14.195Z,99.90
2022-09-13T05:36:42.557Z,99.90
2022-09-13T05:42:02.625Z,99.90
2022-09-13T05:44:29.937Z,99.90
2022-09-13T05:46:57.084Z,99.90
2022-09-13T05:49:24.265Z,99.90
2022-09-13T05:51:51.496Z,99.90
2022-09-13T05:54:18.619Z,99.90
2022-09-13T05:56:45.909Z,99.90
2022-09-13T05:59:14.020Z,99.90
2022-09-13T06:01:41.420Z,99.90
2022-09-13T06:04:08.845Z,99.90
2022-09-13T06:06:36.100Z,99.90
2022-09-13T06:09:03.603Z,99.90
2022-09-13T06:11:31.539Z,99.90
2022-09-13T06:13:58.778Z,99.90
2022-09-13T06:16:26.300Z,99.90
2022-09-13T06:18:53.564Z,99.90
2022-09-13T06:21:28.231Z,99.90
2022-09-13T06:23:56.388Z,99.90
2022-09-13T06:26:27.395Z,99.90
2022-09-13T06:28:57.685Z,99.90
2022-09-13T06:31:28.409Z,99.90
2022-09-13T06:34:01.607Z,99.90
2022-09-13T06:36:29.341Z,99.90
2022-09-13T06:38:56.471Z,99.90
2022-09-13T06:41:25.143Z,99.90
2022-09-13T06:43:58.873Z,99.90
2022-09-13T06:46:29.420Z,99.90
2022-09-13T06:49:01.493Z,99.90
2022-09-13T06:51:37.585Z,99.90
2022-09-13T06:54:05.511Z,99.90
2022-09-13T06:56:38.653Z,99.90
2022-09-13T06:59:10.884Z,99.90
2022-09-13T07:01:42.323Z,99.90
2022-09-13T07:04:18.596Z,99.90
2022-09-13T07:06:49.240Z,99.90
2022-09-13T07:09:22.178Z,99.90
2022-09-13T07:11:54.725Z,99.90
2022-09-13T07:14:28.096Z,99.90
2022-09-13T07:16:56.124Z,99.90
2022-09-13T07:19:26.319Z,99.90
2022-09-13T07:21:55.965Z,99.90
2022-09-13T07:24:24.068Z,99.90
2022-09-13T07:26:51.834Z,99.90
2022-09-13T07:29:22.831Z,99.90
2022-09-13T07:31:55.406Z,99.90
2022-09-13T07:34:25.736Z,99.90
2022-09-13T07:36:53.800Z,99.90
2022-09-13T07:39:22.996Z,99.90
2022-09-13T07:41:52.136Z,99.90
2022-09-13T07:44:19.445Z,99.90
2022-09-13T07:46:46.672Z,99.90
2022-09-13T07:49:19.434Z,99.90
2022-09-13T07:51:46.702Z,99.90
2022-09-13T07:54:18.126Z,99.90
2022-09-13T07:56:46.199Z,99.90
2022-09-13T07:59:16.746Z,99.90
2022-09-13T08:01:48.040Z,99.90
2022-09-13T08:04:19.235Z,99.90
2022-09-13T08:06:47.717Z,99.90
2022-09-13T08:09:16.481Z,99.90
2022-09-13T08:11:53.606Z,99.90
2022-09-13T08:14:23.191Z,99.90
2022-09-13T08:16:51.225Z,99.90
2022-09-13T08:19:19.502Z,99.90
2022-09-13T08:21:47.811Z,99.90
2022-09-13T08:24:22.530Z,99.90
2022-09-13T08:26:50.452Z,99.90
2022-09-13T08:29:17.780Z,99.90
2022-09-13T08:31:45.308Z,99.90
2022-09-13T08:34:17.376Z,99.90
2022-09-13T08:36:45.120Z,99.90
2022-09-13T08:39:13.191Z,99.90
2022-09-13T08:41:40.357Z,99.90
2022-09-13T08:44:43.049Z,99.90
2022-09-13T08:47:39.761Z,99.90
2022-09-13T08:50:23.777Z,99.90
2022-09-13T08:53:08.560Z,99.90
2022-09-13T08:56:23.270Z,99.90
2022-09-13T08:59:16.430Z,99.90
2022-09-13T09:02:41.290Z,99.90
2022-09-13T09:05:31.136Z,99.90
2022-09-13T09:08:22.750Z,99.90
2022-09-13T09:13:53.928Z,99.90
2022-09-13T09:16:48.446Z,99.90
2022-09-13T09:19:33.036Z,99.90
2022-09-13T09:22:04.437Z,99.90
2022-09-13T09:24:37.527Z,99.90
2022-09-13T09:27:16.643Z,99.90
2022-09-13T09:29:46.026Z,99.90
2022-09-13T09:32:52.920Z,99.90
2022-09-13T09:36:07.623Z,99.90
2022-09-13T09:38:42.617Z,99.90
2022-09-13T09:41:32.439Z,99.90
2022-09-13T09:44:22.506Z,99.90
2022-09-13T09:47:13.505Z,99.90
2022-09-13T09:49:55.986Z,99.90
2022-09-13T09:53:07.550Z,99.90
2022-09-13T09:55:58.625Z,99.90
2022-09-13T09:58:46.604Z,99.90
2022-09-13T10:01:28.090Z,99.90
2022-09-13T10:04:19.722Z,99.90
2022-09-13T10:06:47.103Z,99.90
2022-09-13T11:26:23.733Z,99.90
2022-09-13T11:29:31.067Z,92.10
2022-09-13T11:32:19.125Z,95.80
2022-09-13T11:35:29.593Z,97.10
2022-09-13T11:38:21.687Z,97.40
2022-09-13T11:41:03.327Z,99.90
2022-09-13T11:43:36.079Z,99.90
2022-09-13T11:46:21.577Z,99.90
2022-09-13T11:48:58.955Z,99.90
2022-09-13T11:51:47.137Z,99.10
2022-09-13T11:54:55.203Z,99.00
2022-09-13T11:57:32.886Z,99.60
2022-09-13T12:00:15.527Z,99.90
2022-09-13T12:08:22.868Z,87.60
2022-09-13T12:11:04.802Z,84.90
2022-09-13T12:14:02.659Z,84.60
2022-09-13T12:16:40.650Z,83.60
2022-09-13T12:19:29.123Z,81.40
2022-09-13T12:22:01.086Z,82.00
2022-09-13T12:24:53.612Z,80.00
2022-09-13T12:27:47.497Z,80.80
2022-09-13T12:30:19.643Z,77.50
2022-09-13T12:32:49.403Z,79.60
2022-09-13T12:36:11.136Z,79.80
2022-09-13T12:39:19.416Z,79.20
2022-09-13T12:42:23.825Z,78.40
2022-09-13T12:45:16.123Z,79.00
2022-09-13T12:48:09.928Z,79.10
2022-09-13T12:51:07.510Z,79.50
2022-09-13T12:54:04.153Z,79.90
2022-09-13T12:57:25.874Z,80.00
2022-09-13T13:00:24.114Z,77.90
2022-09-13T13:03:04.824Z,78.90
2022-09-13T13:05:41.427Z,77.00
2022-09-13T13:08:30.656Z,76.50
2022-09-13T13:11:14.343Z,76.40
2022-09-13T13:13:53.368Z,75.90
2022-09-13T13:16:28.616Z,75.80
2022-09-13T13:19:02.737Z,76.30
2022-09-13T13:21:39.646Z,75.60
2022-09-13T13:24:27.794Z,75.00
2022-09-13T13:26:59.455Z,74.90
2022-09-13T13:29:30.463Z,75.20
2022-09-13T13:31:57.672Z,74.90
2022-09-13T13:34:51.050Z,75.50
2022-09-13T13:37:18.163Z,74.40
2022-09-13T13:39:48.871Z,73.80
2022-09-13T13:42:31.507Z,74.60
2022-09-13T13:45:01.439Z,72.80
2022-09-13T13:47:29.123Z,73.30
2022-09-13T13:50:17.415Z,73.40
2022-09-13T13:52:47.384Z,73.70
2022-09-13T13:55:43.348Z,72.00
2022-09-13T13:58:16.170Z,71.50
2022-09-13T14:00:51.218Z,70.90
2022-09-13T14:03:55.032Z,70.80
2022-09-13T14:07:00.475Z,70.60
2022-09-13T14:09:57.766Z,69.20
2022-09-13T14:12:36.695Z,89.30
2022-09-13T14:15:28.880Z,78.00
2022-09-13T14:18:27.156Z,70.00
2022-09-13T14:21:03.452Z,68.70
2022-09-13T14:23:31.809Z,70.40
2022-09-13T14:26:01.101Z,74.50
2022-09-13T14:28:28.761Z,76.50
2022-09-13T14:30:59.856Z,92.30
2022-09-13T14:33:33.569Z,82.10
2022-09-13T14:36:20.646Z,84.20
2022-09-13T14:38:57.235Z,87.10
2022-09-13T14:41:38.456Z,87.10
2022-09-13T14:44:28.934Z,90.30
2022-09-13T14:47:21.207Z,88.10
2022-09-13T14:49:59.957Z,86.50
2022-09-13T14:52:35.511Z,90.80
2022-09-13T14:55:23.993Z,91.40
2022-09-13T14:58:00.378Z,91.50
2022-09-13T15:00:28.711Z,91.10
2022-09-13T15:03:01.392Z,89.20
2022-09-13T15:05:34.045Z,89.50
2022-09-13T15:08:43.063Z,88.80
2022-09-13T15:11:35.309Z,86.90
2022-09-13T15:14:35.027Z,89.00
2022-09-13T15:17:13.637Z,88.90
2022-09-13T15:19:50.523Z,86.30
2022-09-13T15:22:25.013Z,84.80
2022-09-13T15:25:03.666Z,87.70
2022-09-13T15:27:47.508Z,86.30
2022-09-13T15:30:26.372Z,89.20
2022-09-13T15:33:11.921Z,91.00
2022-09-13T15:35:47.608Z,92.20
2022-09-13T15:38:31.146Z,91.90
2022-09-13T15:41:13.502Z,92.10
2022-09-13T15:43:40.785Z,90.90
2022-09-13T15:46:15.473Z,90.80
2022-09-13T15:48:56.779Z,91.40
2022-09-13T15:51:24.054Z,91.00
2022-09-13T15:53:52.085Z,90.80
2022-09-13T15:56:31.617Z,90.90
2022-09-13T15:58:59.218Z,90.80
2022-09-13T16:01:26.739Z,90.80
2022-09-13T16:03:54.340Z,91.10
2022-09-13T16:06:24.557Z,91.10
2022-09-13T16:08:51.984Z,91.80
2022-09-13T16:11:19.232Z,91.80
2022-09-13T16:13:46.398Z,92.40
2022-09-13T16:16:16.409Z,92.90
2022-09-13T16:18:43.820Z,93.50
2022-09-13T16:21:11.064Z,93.90
2022-09-13T16:23:38.226Z,94.10
2022-09-13T16:26:06.139Z,94.60
2022-09-13T16:28:33.436Z,94.50
2022-09-13T16:31:00.761Z,94.90
2022-09-13T16:33:28.043Z,95.40
2022-09-13T16:35:58.012Z,96.20
2022-09-13T16:38:28.749Z,96.90
2022-09-13T16:40:55.851Z,97.30
2022-09-13T16:43:23.303Z,97.70
2022-09-13T16:45:52.814Z,97.80
2022-09-13T16:48:19.940Z,97.90
2022-09-13T16:50:47.084Z,97.60
2022-09-13T16:53:14.250Z,98.30
2022-09-13T16:55:41.510Z,99.90
2022-09-13T16:58:09.007Z,98.90
2022-09-13T17:00:36.141Z,99.20
2022-09-13T17:03:03.837Z,99.80
2022-09-13T17:05:31.047Z,99.90
2022-09-13T17:07:58.287Z,99.90
2022-09-13T17:10:25.528Z,99.90
2022-09-13T17:12:52.767Z,99.90
2022-09-13T17:15:20.054Z,99.90
2022-09-13T17:17:47.321Z,99.90
2022-09-13T17:20:14.691Z,99.90
2022-09-13T17:22:41.950Z,99.90
2022-09-13T17:25:10.616Z,99.90
2022-09-13T17:27:37.981Z,99.90
2022-09-13T17:30:06.312Z,99.90
2022-09-13T17:32:33.662Z,99.90
2022-09-13T17:35:00.833Z,99.90
2022-09-13T17:39:55.730Z,99.90
2022-09-13T17:42:23.633Z,99.90
2022-09-13T17:44:51.215Z,99.90
2022-09-13T17:47:18.361Z,99.90
2022-09-13T17:49:45.636Z,99.90
2022-09-13T17:52:12.805Z,99.90
2022-09-13T17:54:40.072Z,99.90
2022-09-13T17:57:07.675Z,99.90
2022-09-13T17:59:34.819Z,99.90
2022-09-13T18:02:02.334Z,99.90
2022-09-13T18:04:29.769Z,99.90
2022-09-13T18:06:57.064Z,99.90
2022-09-13T18:09:24.315Z,99.90
2022-09-13T18:11:51.821Z,99.90
2022-09-13T18:14:20.783Z,99.90
2022-09-13T18:16:48.429Z,99.90
2022-09-13T18:19:44.956Z,99.90
2022-09-13T18:22:12.317Z,99.90
2022-09-13T18:24:39.525Z,99.90
2022-09-13T18:27:06.795Z,99.90
2022-09-13T18:29:34.086Z,99.90
2022-09-13T18:32:01.510Z,99.90
2022-09-13T18:34:28.785Z,99.90
2022-09-13T18:36:59.209Z,99.90
2022-09-13T18:39:26.383Z,99.90
2022-09-13T18:41:54.039Z,99.90
2022-09-13T18:44:24.744Z,99.90
2022-09-13T18:46:52.061Z,99.90
2022-09-13T18:49:19.265Z,99.90
2022-09-13T18:51:46.426Z,99.90
2022-09-13T19:19:19.722Z,99.90
2022-09-13T19:21:46.951Z,99.90
2022-09-13T19:24:17.294Z,99.90
2022-09-13T19:26:47.988Z,99.90
2022-09-13T19:29:18.703Z,99.90
2022-09-13T19:31:52.293Z,99.90
2022-09-13T19:34:21.724Z,99.90
2022-09-13T19:36:50.393Z,99.90
2022-09-13T19:39:17.929Z,99.90
2022-09-13T19:41:45.101Z,99.90
2022-09-13T19:44:15.406Z,99.90
2022-09-13T19:46:43.447Z,99.90
2022-09-13T19:49:16.573Z,99.90
2022-09-13T19:51:48.853Z,99.90
2022-09-13T19:54:19.299Z,99.90
2022-09-13T19:56:46.810Z,99.90
2022-09-13T19:59:17.037Z,99.90
2022-09-13T20:01:47.083Z,99.90
2022-09-13T20:04:18.748Z,99.90
2022-09-13T20:06:49.551Z,99.90
2022-09-13T20:09:20.539Z,99.90
2022-09-13T20:11:48.776Z,99.90
2022-09-13T20:14:20.247Z,99.90
2022-09-13T20:16:48.548Z,99.90
2022-09-13T20:19:39.332Z,99.90
2022-09-13T20:22:06.681Z,99.90
2022-09-13T20:24:33.889Z,99.90
2022-09-13T20:27:01.087Z,99.90
2022-09-13T20:29:28.243Z,99.90
2022-09-13T20:31:55.555Z,99.90
2022-09-13T20:34:22.890Z,99.90
2022-09-13T20:36:50.088Z,99.90
2022-09-13T20:39:17.269Z,99.90
2022-09-13T20:41:44.801Z,99.90
2022-09-13T20:44:12.550Z,99.90
2022-09-13T20:46:40.040Z,99.90
2022-09-13T20:49:08.691Z,99.90
2022-09-13T20:51:36.654Z,99.90
2022-09-13T20:54:04.328Z,99.90
2022-09-13T20:56:32.136Z,99.90
2022-09-13T20:58:59.661Z,99.90
2022-09-13T21:01:29.708Z,99.90
2022-09-13T21:03:58.085Z,99.90
2022-09-13T21:06:29.125Z,99.90
2022-09-13T21:08:57.098Z,99.90
2022-09-13T21:11:32.968Z,99.90
2022-09-13T21:14:04.737Z,99.90
2022-09-13T21:16:36.135Z,99.90
2022-09-13T21:19:03.915Z,99.90
2022-09-13T21:21:35.133Z,99.90
2022-09-13T21:24:04.091Z,99.90
2022-09-13T21:26:32.296Z,99.90
2022-09-13T21:29:00.189Z,99.90
2022-09-13T21:31:33.161Z,99.90
2022-09-13T21:34:07.202Z,99.90
2022-09-13T21:36:35.897Z,99.90
2022-09-13T21:39:05.213Z,99.90
2022-09-13T21:41:33.311Z,99.90
2022-09-13T21:44:01.037Z,99.90
2022-09-13T21:46:35.183Z,99.90
2022-09-13T21:49:05.793Z,99.90
2022-09-13T21:51:36.849Z,99.90
2022-09-13T21:54:08.227Z,99.90
2022-09-13T21:56:39.833Z,99.90
2022-09-13T21:59:15.533Z,99.90
2022-09-13T22:01:47.989Z,99.90
2022-09-13T22:04:22.881Z,99.90
2022-09-13T22:06:51.841Z,99.90
2022-09-13T22:09:21.113Z,99.90
2022-09-13T22:11:49.653Z,99.90
2022-09-13T22:14:19.535Z,99.90
2022-09-13T22:16:46.759Z,99.90
2022-09-13T22:19:21.592Z,99.90
2022-09-13T22:21:53.438Z,99.90
2022-09-13T22:24:23.996Z,99.90
2022-09-13T22:26:52.757Z,99.90
2022-09-13T22:29:21.527Z,99.90
2022-09-13T22:31:51.202Z,99.90
2022-09-13T22:34:24.260Z,99.90
2022-09-13T22:36:54.186Z,99.90
2022-09-13T22:39:21.366Z,99.90
2022-09-13T22:41:48.596Z,99.90
2022-09-13T22:44:15.745Z,99.90
2022-09-13T22:46:46.702Z,99.90
2022-09-13T22:49:22.979Z,99.90
2022-09-13T22:51:50.146Z,99.90
2022-09-13T22:54:19.517Z,99.90
2022-09-13T22:56:48.151Z,99.90
2022-09-13T22:59:20.063Z,99.90
2022-09-13T23:01:48.672Z,99.90
2022-09-13T23:04:16.182Z,99.90
2022-09-13T23:06:44.238Z,99.90
2022-09-13T23:09:17.049Z,99.90
2022-09-13T23:11:45.134Z,99.90
2022-09-13T23:14:15.238Z,99.90
2022-09-13T23:16:45.944Z,99.90
2022-09-13T23:19:15.020Z,99.90
2022-09-13T23:21:43.850Z,99.90
2022-09-13T23:24:15.585Z,99.90
2022-09-13T23:26:44.473Z,99.90
2022-09-13T23:29:15.980Z,99.90
2022-09-13T23:31:43.917Z,99.90
2022-09-13T23:34:12.667Z,99.90
2022-09-13T23:36:42.808Z,99.90
2022-09-13T23:39:15.563Z,99.90
2022-09-13T23:41:43.458Z,99.90
2022-09-13T23:44:10.715Z,99.90
2022-09-13T23:46:38.004Z,99.90
2022-09-13T23:49:05.275Z,99.90
2022-09-13T23:51:32.764Z,99.90
2022-09-13T23:54:00.202Z,99.90
2022-09-13T23:56:31.541Z,99.90
2022-09-13T23:59:01.697Z,99.90
